Time;durP1;ratioP1;P1;durP2;ratioP2;P2;SDS_P1;SDS_P2;PMS_P1;PMS_P2;Temp;Humidity;BMP_temperature;BMP_pressure;BME280_temperature;BME280_humidity;BME280_pressure;Samples;Min_cycle;Max_cycle;Signal;HPM_P1;HPM_P2
2021/05/02 00:01:55;;;;;;;26.88;8.50;;;;;;;21.14;73.22;99316.56;5058818;28;20063;-69
2021/05/02 00:04:21;;;;;;;20.17;7.47;;;;;;;21.15;72.82;99310.09;5059686;28;20044;-69
2021/05/02 00:06:47;;;;;;;21.92;7.30;;;;;;;21.13;72.62;99304.97;5059606;28;20310;-74
2021/05/02 00:09:12;;;;;;;18.13;7.35;;;;;;;21.07;73.03;99313.19;5060434;28;20029;-69
2021/05/02 00:11:38;;;;;;;17.33;6.78;;;;;;;21.12;72.96;99321.34;5060522;28;20033;-69
2021/05/02 00:14:03;;;;;;;20.08;7.03;;;;;;;21.18;72.80;99309.63;5056781;28;20017;-69
2021/05/02 00:16:29;;;;;;;17.30;7.32;;;;;;;21.13;72.76;99321.13;5059600;28;20032;-69
2021/05/02 00:18:55;;;;;;;22.98;8.32;;;;;;;20.93;73.56;99315.34;5056849;28;20338;-69
2021/05/02 00:21:23;;;;;;;23.60;7.38;;;;;;;20.80;74.13;99310.22;5061279;28;20021;-70
2021/05/02 00:23:49;;;;;;;21.75;7.22;;;;;;;20.94;74.13;99325.88;5059680;28;20060;-76
2021/05/02 00:26:14;;;;;;;18.67;7.22;;;;;;;21.10;73.39;99313.53;5058951;28;20063;-74
2021/05/02 00:28:51;;;;;;;20.58;7.40;;;;;;;21.26;72.72;99311.97;5057344;28;20310;-69
2021/05/02 00:31:18;;;;;;;21.98;7.40;;;;;;;21.47;72.03;99327.41;5057511;28;20096;-70
2021/05/02 00:33:44;;;;;;;25.13;6.50;;;;;;;21.64;71.33;99333.63;5059687;28;20609;-74
2021/05/02 00:36:10;;;;;;;22.55;7.93;;;;;;;21.83;70.08;99306.44;5060085;28;20025;-74
2021/05/02 00:38:39;;;;;;;22.83;8.73;;;;;;;21.80;70.25;99301.56;5059590;28;20301;-69
2021/05/02 00:41:12;;;;;;;18.98;11.07;;;;;;;21.76;70.50;99298.53;5059744;28;20040;-74
2021/05/02 00:44:22;;;;;;;25.52;8.35;;;;;;;21.72;70.93;99301.97;5059330;28;20250;-74
2021/05/02 00:47:02;;;;;;;80.50;64.30;;;;;;;21.81;70.55;99276.22;5040718;28;20037;-74
2021/05/02 00:49:42;;;;;;;79.43;60.67;;;;;;;21.60;71.44;99284.00;5043342;28;20033;-69
2021/05/02 00:52:50;;;;;;;82.30;62.22;;;;;;;21.39;72.39;99282.03;5058379;28;20056;-74
2021/05/02 00:55:43;;;;;;;71.00;46.45;;;;;;;21.54;71.66;99238.38;5052141;28;20437;-74
2021/05/02 00:58:18;;;;;;;75.82;56.55;;;;;;;21.40;71.96;99262.13;5057650;28;20119;-69
2021/05/02 01:00:51;;;;;;;53.65;40.13;;;;;;;21.54;71.79;99260.72;5055811;28;20111;-70
2021/05/02 01:03:23;;;;;;;58.70;34.85;;;;;;;21.44;71.91;99241.72;5059181;28;20033;-74
2021/05/02 01:05:49;;;;;;;35.08;15.48;;;;;;;20.81;74.59;99231.97;5059003;28;20037;-74
2021/05/02 01:08:14;;;;;;;38.45;10.75;;;;;;;21.08;73.91;99247.53;5056056;28;20063;-70
2021/05/02 01:10:40;;;;;;;16.70;8.25;;;;;;;21.25;73.56;99262.69;5058609;28;20234;-70
2021/05/02 01:13:13;;;;;;;18.55;7.80;;;;;;;21.41;72.86;99271.00;5060196;28;20055;-74
2021/05/02 01:15:44;;;;;;;24.95;8.80;;;;;;;21.50;72.22;99262.28;5060834;28;20024;-74
2021/05/02 01:18:10;;;;;;;23.25;8.15;;;;;;;21.68;71.41;99266.59;5060145;28;20044;-71
2021/05/02 01:20:39;;;;;;;21.60;8.68;;;;;;;21.81;70.55;99247.41;5059457;28;20028;-69
2021/05/02 01:23:29;;;;;;;24.13;10.45;;;;;;;21.98;69.73;99242.84;5059161;28;20337;-74
2021/05/02 01:26:01;;;;;;;26.92;8.95;;;;;;;21.95;70.07;99248.72;5050293;28;20126;-69
2021/05/02 01:28:28;;;;;;;25.10;9.02;;;;;;;21.98;69.54;99232.03;5055941;28;20040;-74
2021/05/02 01:30:54;;;;;;;18.80;7.75;;;;;;;21.98;69.33;99215.06;5058110;28;20033;-74
2021/05/02 01:33:20;;;;;;;17.40;7.50;;;;;;;22.09;69.53;99219.56;5055773;28;20033;-69
2021/05/02 01:35:46;;;;;;;21.77;7.65;;;;;;;21.81;70.60;99228.53;5059754;28;20036;-69
2021/05/02 01:38:13;;;;;;;15.48;7.03;;;;;;;21.48;71.63;99213.22;5058969;28;20341;-69
2021/05/02 01:40:39;;;;;;;20.70;7.53;;;;;;;21.64;71.85;99241.22;5061256;28;20047;-74
2021/05/02 01:43:05;;;;;;;22.45;7.43;;;;;;;21.70;71.90;99250.19;5062796;28;20032;-69
2021/05/02 01:45:30;;;;;;;25.75;8.32;;;;;;;21.71;71.33;99239.16;5061826;28;20029;-69
2021/05/02 01:48:03;;;;;;;17.80;8.30;;;;;;;21.72;71.64;99234.59;5064265;28;20044;-69
2021/05/02 01:50:31;;;;;;;26.00;8.75;;;;;;;21.70;71.54;99226.75;5063330;28;20091;-69
2021/05/02 01:52:57;;;;;;;20.55;8.23;;;;;;;21.46;72.77;99214.53;5057877;28;20044;-69
2021/05/02 01:55:23;;;;;;;22.77;9.07;;;;;;;21.31;72.72;99207.03;5061937;28;20033;-75
2021/05/02 01:57:50;;;;;;;20.13;8.55;;;;;;;21.33;72.72;99213.81;5077522;28;20025;-71
2021/05/02 02:00:25;;;;;;;24.70;8.95;;;;;;;21.33;72.90;99216.50;5062102;28;20059;-69
2021/05/02 02:02:57;;;;;;;21.55;9.38;;;;;;;21.37;72.37;99208.75;5062756;28;20045;-74
2021/05/02 02:05:24;;;;;;;21.77;9.07;;;;;;;21.51;71.67;99209.22;5062956;28;20036;-69
2021/05/02 02:07:50;;;;;;;22.55;8.90;;;;;;;21.52;71.02;99213.56;5058567;28;20037;-69
2021/05/02 02:10:20;;;;;;;24.05;8.18;;;;;;;21.56;70.02;99207.41;5063603;28;20091;-69
2021/05/02 02:12:47;;;;;;;27.08;9.27;;;;;;;21.65;69.34;99200.56;5061781;28;20094;-74
2021/05/02 02:15:13;;;;;;;28.00;9.50;;;;;;;21.68;68.90;99199.25;5061083;28;20033;-69
2021/05/02 02:17:38;;;;;;;27.05;8.27;;;;;;;21.57;68.86;99195.59;5061062;28;20104;-73
2021/05/02 02:20:06;;;;;;;21.60;8.18;;;;;;;21.43;69.45;99193.47;5060818;28;20028;-69
2021/05/02 02:22:44;;;;;;;20.08;7.50;;;;;;;21.26;70.31;99190.78;5061203;28;20033;-74
2021/05/02 02:25:11;;;;;;;24.40;7.75;;;;;;;21.07;70.57;99168.66;5058686;28;20269;-74
2021/05/02 02:27:39;;;;;;;23.83;8.02;;;;;;;21.24;70.35;99195.59;5062547;28;20036;-74
2021/05/02 02:30:08;;;;;;;24.27;8.00;;;;;;;21.15;70.46;99181.69;5060150;28;20037;-69
2021/05/02 02:32:41;;;;;;;28.80;7.22;;;;;;;21.25;69.79;99195.34;5061563;28;20033;-73
2021/05/02 02:35:08;;;;;;;21.60;7.63;;;;;;;21.13;70.36;99204.53;5062520;28;20317;-69
2021/05/02 02:37:35;;;;;;;18.98;8.27;;;;;;;20.93;70.79;99192.38;5063202;28;20029;-74
2021/05/02 02:40:04;;;;;;;24.40;8.23;;;;;;;20.91;71.09;99205.25;5062816;28;20345;-74
2021/05/02 02:42:30;;;;;;;22.38;7.93;;;;;;;20.84;71.15;99183.06;5060768;28;20032;-75
2021/05/02 02:44:58;;;;;;;21.25;7.82;;;;;;;21.02;70.74;99187.41;5059521;28;20103;-74
2021/05/02 02:47:39;;;;;;;25.10;8.07;;;;;;;21.23;70.20;99192.09;5060487;28;20044;-69
2021/05/02 02:50:10;;;;;;;27.60;7.65;;;;;;;21.20;70.24;99203.31;5060809;28;20033;-74
2021/05/02 02:52:43;;;;;;;20.63;7.00;;;;;;;21.19;69.95;99199.00;5063380;28;20100;-69
2021/05/02 02:55:12;;;;;;;23.05;8.02;;;;;;;21.01;71.44;99216.19;5062355;28;20250;-74
2021/05/02 02:57:45;;;;;;;23.25;7.15;;;;;;;20.86;71.88;99199.78;5063237;28;20036;-69
2021/05/02 03:00:12;;;;;;;27.73;8.05;;;;;;;21.08;71.25;99209.84;5063578;28;20231;-69
2021/05/02 03:02:43;;;;;;;17.63;7.18;;;;;;;21.20;70.63;99199.81;5063412;28;20106;-74
2021/05/02 03:05:12;;;;;;;16.42;7.40;;;;;;;21.08;71.13;99213.34;5063374;28;20035;-74
2021/05/02 03:07:40;;;;;;;27.38;8.65;;;;;;;21.10;71.47;99218.50;5061878;28;20057;-74
2021/05/02 03:10:08;;;;;;;23.58;8.15;;;;;;;21.23;70.74;99220.91;5060659;28;20036;-74
2021/05/02 03:12:34;;;;;;;19.63;7.88;;;;;;;20.95;71.57;99221.72;5059287;28;20272;-71
2021/05/02 03:15:01;;;;;;;23.35;8.80;;;;;;;20.98;71.71;99224.75;5060211;28;20016;-74
2021/05/02 03:17:30;;;;;;;18.05;8.20;;;;;;;20.97;72.24;99236.56;5060103;28;20063;-69
2021/05/02 03:20:05;;;;;;;16.73;7.03;;;;;;;20.89;72.23;99250.41;5059354;28;20661;-69
2021/05/02 03:22:50;;;;;;;27.30;8.07;;;;;;;20.84;72.40;99254.91;5059498;28;20380;-70
2021/05/02 03:25:22;;;;;;;18.70;7.60;;;;;;;20.90;72.65;99252.06;5042377;28;20037;-74
2021/05/02 03:27:59;;;;;;;22.25;8.45;;;;;;;21.05;71.96;99248.81;5044742;28;20345;-70
2021/05/02 03:30:27;;;;;;;21.75;8.27;;;;;;;21.06;71.66;99241.56;5059709;28;21166;-75
2021/05/02 03:32:55;;;;;;;22.00;7.22;;;;;;;21.11;71.38;99247.84;5062141;28;20226;-69
2021/05/02 03:35:27;;;;;;;17.25;7.20;;;;;;;21.16;71.34;99255.19;5061897;28;20264;-69
2021/05/02 03:38:04;;;;;;;18.30;8.32;;;;;;;21.17;71.16;99246.06;5060113;28;20102;-74
2021/05/02 03:40:30;;;;;;;22.35;8.02;;;;;;;21.26;70.79;99255.41;5060356;28;20059;-69
2021/05/02 03:42:55;;;;;;;21.13;8.00;;;;;;;21.30;70.48;99237.72;5059247;28;20289;-70
2021/05/02 03:45:21;;;;;;;24.17;7.70;;;;;;;21.40;70.09;99232.50;5060185;28;20041;-73
2021/05/02 03:47:46;;;;;;;17.35;7.97;;;;;;;21.37;70.27;99237.56;5057233;28;20063;-69
2021/05/02 03:50:11;;;;;;;19.80;6.43;;;;;;;21.33;70.16;99229.13;5059849;28;20044;-74
2021/05/02 03:52:37;;;;;;;24.20;8.52;;;;;;;21.34;70.38;99244.25;5058650;28;20327;-69
2021/05/02 03:55:05;;;;;;;30.08;11.93;;;;;;;21.32;70.75;99255.25;5060073;28;20043;-69
2021/05/02 03:57:30;;;;;;;29.77;10.88;;;;;;;21.33;70.64;99259.59;5058836;28;20048;-74
2021/05/02 03:59:56;;;;;;;28.60;10.00;;;;;;;21.33;70.59;99258.75;5061651;28;20045;-74
2021/05/02 04:02:21;;;;;;;29.00;12.35;;;;;;;21.35;70.76;99273.63;5059163;28;20025;-69
2021/05/02 04:04:46;;;;;;;28.48;14.50;;;;;;;21.30;70.61;99262.75;5058492;28;20330;-69
2021/05/02 04:07:14;;;;;;;27.27;11.95;;;;;;;21.32;70.26;99271.41;5059295;28;20040;-69
2021/05/02 04:09:40;;;;;;;28.88;11.43;;;;;;;21.34;70.30;99263.91;5059138;28;20017;-75
2021/05/02 04:12:06;;;;;;;22.40;9.85;;;;;;;21.41;70.40;99260.25;5059779;28;20032;-69
2021/05/02 04:14:32;;;;;;;25.27;9.15;;;;;;;21.43;69.62;99250.84;5056071;28;20204;-70
2021/05/02 04:17:04;;;;;;;26.30;9.70;;;;;;;21.48;69.64;99268.97;5060463;28;20226;-71
2021/05/02 04:19:34;;;;;;;28.63;9.27;;;;;;;21.48;69.89;99271.66;5058117;28;20054;-74
2021/05/02 04:22:00;;;;;;;24.33;8.85;;;;;;;21.47;69.76;99259.25;5059445;28;20040;-75
2021/05/02 04:24:26;;;;;;;30.25;9.30;;;;;;;21.50;69.39;99256.91;5056959;28;20348;-74
2021/05/02 04:26:54;;;;;;;28.30;9.02;;;;;;;21.59;69.23;99268.06;5061182;28;20120;-74
2021/05/02 04:29:24;;;;;;;24.95;8.35;;;;;;;21.50;69.19;99262.28;5058207;28;20266;-69
2021/05/02 04:31:51;;;;;;;25.10;8.50;;;;;;;21.55;69.55;99272.31;5057443;28;20103;-74
2021/05/02 04:34:18;;;;;;;25.17;9.52;;;;;;;21.46;69.45;99269.22;5058655;28;20253;-74
2021/05/02 04:36:44;;;;;;;25.95;10.43;;;;;;;21.36;69.94;99274.44;5055538;28;20096;-74
2021/05/02 04:39:10;;;;;;;25.83;11.27;;;;;;;21.28;70.43;99272.97;5059740;28;20230;-74
2021/05/02 04:41:35;;;;;;;23.58;10.38;;;;;;;21.31;70.60;99258.19;5058382;28;20102;-74
2021/05/02 04:44:01;;;;;;;29.05;11.18;;;;;;;21.43;70.44;99275.09;5059930;28;20021;-74
2021/05/02 04:46:26;;;;;;;31.30;11.25;;;;;;;21.50;70.42;99283.00;5059189;28;20033;-74
2021/05/02 04:48:52;;;;;;;26.00;11.63;;;;;;;21.48;70.32;99277.88;5059512;28;20370;-69
2021/05/02 04:51:19;;;;;;;24.67;11.35;;;;;;;21.55;70.34;99275.84;5059271;28;20033;-69
2021/05/02 04:53:45;;;;;;;26.65;12.27;;;;;;;21.77;69.88;99265.13;5059794;28;20044;-69
2021/05/02 04:56:11;;;;;;;33.53;11.98;;;;;;;21.83;69.57;99250.66;5058571;28;20258;-72
2021/05/02 04:58:36;;;;;;;32.63;12.65;;;;;;;22.07;69.25;99237.84;5059889;28;20044;-74
2021/05/02 05:01:03;;;;;;;28.77;13.13;;;;;;;21.89;70.80;99219.25;5059149;28;20074;-75
2021/05/02 05:03:28;;;;;;;29.23;12.98;;;;;;;22.21;69.97;99236.44;5058331;28;20037;-76
2021/05/02 05:05:54;;;;;;;25.63;11.75;;;;;;;22.69;67.97;99242.94;5058629;28;20037;-69
2021/05/02 05:08:19;;;;;;;28.88;12.48;;;;;;;23.13;65.57;99246.41;5058700;28;20025;-74
2021/05/02 05:10:45;;;;;;;30.75;12.43;;;;;;;23.39;64.76;99255.56;5057325;28;20025;-74
2021/05/02 05:13:10;;;;;;;33.40;11.98;;;;;;;23.54;64.55;99250.31;5058824;28;20063;-75
2021/05/02 05:15:36;;;;;;;29.13;10.60;;;;;;;23.63;63.71;99241.72;5061669;28;20219;-69
2021/05/02 05:18:02;;;;;;;21.70;9.93;;;;;;;23.52;63.44;99241.63;5063403;28;20103;-69
2021/05/02 05:20:27;;;;;;;33.75;10.88;;;;;;;23.99;61.59;99232.78;5061848;28;20056;-69
2021/05/02 05:22:53;;;;;;;31.40;11.38;;;;;;;24.23;60.40;99192.59;5065076;28;20064;-69
2021/05/02 05:25:18;;;;;;;30.40;13.07;;;;;;;24.49;59.33;99212.50;5061923;28;20032;-74
2021/05/02 05:27:44;;;;;;;29.90;13.38;;;;;;;24.26;60.17;99224.53;5062392;28;20235;-70
2021/05/02 05:30:10;;;;;;;29.92;11.30;;;;;;;24.44;58.54;99234.94;5063153;28;20259;-75
2021/05/02 05:32:36;;;;;;;28.50;13.23;;;;;;;24.94;58.42;99238.88;5064403;28;20049;-74
2021/05/02 05:35:03;;;;;;;26.90;13.63;;;;;;;25.16;57.60;99221.63;5063672;28;20380;-74
2021/05/02 05:37:28;;;;;;;36.00;15.07;;;;;;;25.33;56.97;99214.84;5061984;28;20104;-69
2021/05/02 05:39:54;;;;;;;34.30;13.75;;;;;;;25.58;56.27;99211.31;5062598;28;20036;-69
2021/05/02 05:42:19;;;;;;;34.10;14.13;;;;;;;25.75;54.92;99209.13;5062666;28;20021;-74
2021/05/02 05:44:45;;;;;;;28.48;13.43;;;;;;;25.84;54.16;99195.03;5061689;28;20031;-74
2021/05/02 05:47:12;;;;;;;27.33;11.27;;;;;;;25.84;53.31;99190.41;5063163;28;20040;-74
2021/05/02 05:49:39;;;;;;;28.25;10.88;;;;;;;25.88;52.79;99185.25;5062126;28;20040;-75
2021/05/02 05:52:06;;;;;;;22.52;9.85;;;;;;;26.04;52.68;99193.09;5060700;28;20036;-69
2021/05/02 05:54:32;;;;;;;28.27;8.98;;;;;;;25.88;52.40;99175.22;5062516;28;20031;-74
2021/05/02 05:56:57;;;;;;;25.92;9.25;;;;;;;25.75;53.01;99178.50;5061269;28;20060;-69
2021/05/02 05:59:23;;;;;;;21.52;8.45;;;;;;;26.00;52.53;99200.13;5061337;28;20028;-69
2021/05/02 06:01:49;;;;;;;25.98;8.90;;;;;;;25.95;51.77;99200.13;5062673;28;20044;-73
2021/05/02 06:04:15;;;;;;;25.42;9.35;;;;;;;26.01;53.45;99209.91;5060608;28;20052;-74
2021/05/02 06:06:41;;;;;;;24.58;8.85;;;;;;;26.21;51.58;99217.19;5062441;28;20044;-69
2021/05/02 06:09:08;;;;;;;27.00;8.65;;;;;;;26.82;50.28;99237.81;5061274;28;20281;-70
2021/05/02 06:11:34;;;;;;;17.75;8.23;;;;;;;27.28;48.66;99236.47;5062114;28;20370;-74
2021/05/02 06:14:01;;;;;;;33.20;8.80;;;;;;;27.81;46.18;99227.59;5062231;28;20033;-74
2021/05/02 06:16:26;;;;;;;27.38;8.05;;;;;;;27.96;46.03;99238.31;5063622;28;20065;-69
2021/05/02 06:18:56;;;;;;;24.50;8.00;;;;;;;28.30;44.89;99232.84;5061103;28;20036;-70
2021/05/02 06:21:23;;;;;;;22.35;7.55;;;;;;;28.68;43.70;99206.47;5059412;28;20071;-70
2021/05/02 06:23:49;;;;;;;20.27;8.13;;;;;;;28.84;43.15;99188.00;5061202;28;20033;-74
2021/05/02 06:26:16;;;;;;;15.35;5.18;;;;;;;28.31;42.77;99187.34;5059748;28;20226;-69
2021/05/02 06:28:42;;;;;;;19.65;5.20;;;;;;;27.81;43.27;99205.84;5062910;28;20029;-70
2021/05/02 06:31:08;;;;;;;18.63;4.85;;;;;;;27.26;43.00;99213.38;5061604;28;20036;-69
2021/05/02 06:33:35;;;;;;;18.13;5.95;;;;;;;27.42;44.02;99212.16;5060207;28;20111;-76
2021/05/02 06:36:01;;;;;;;18.90;6.20;;;;;;;27.45;44.74;99208.06;5061548;28;20033;-71
2021/05/02 06:38:27;;;;;;;21.77;6.22;;;;;;;27.67;44.15;99198.34;5060994;28;20052;-69
2021/05/02 06:40:52;;;;;;;21.27;6.03;;;;;;;27.81;44.01;99206.66;5061166;28;20028;-71
2021/05/02 06:43:17;;;;;;;21.27;5.78;;;;;;;27.23;44.94;99206.63;5060317;28;20074;-70
2021/05/02 06:45:43;;;;;;;19.88;6.78;;;;;;;27.13;46.88;99200.44;5060082;28;20315;-73
2021/05/02 06:48:09;;;;;;;23.67;6.07;;;;;;;27.05;46.89;99223.59;5063456;28;20036;-74
2021/05/02 06:50:35;;;;;;;22.85;6.28;;;;;;;26.44;48.45;99223.09;5062809;28;20524;-69
2021/05/02 06:53:00;;;;;;;20.17;5.53;;;;;;;26.33;48.77;99215.00;5061044;28;20048;-74
2021/05/02 06:55:26;;;;;;;23.85;5.55;;;;;;;26.47;48.41;99209.78;5063495;28;20322;-69
2021/05/02 06:57:51;;;;;;;17.80;5.82;;;;;;;26.80;46.40;99215.56;5061804;28;20421;-74
2021/05/02 07:00:17;;;;;;;23.75;6.22;;;;;;;26.37;46.84;99217.97;5061001;28;20052;-69
2021/05/02 07:02:43;;;;;;;19.23;5.57;;;;;;;26.77;46.69;99219.66;5059933;28;20028;-74
2021/05/02 07:05:09;;;;;;;20.85;7.05;;;;;;;26.99;46.04;99239.09;5063573;28;20047;-74
2021/05/02 07:07:34;;;;;;;20.80;5.20;;;;;;;27.07;45.53;99234.19;5071234;28;20052;-70
2021/05/02 07:10:00;;;;;;;23.48;5.65;;;;;;;27.12;45.65;99226.00;5063471;28;20033;-69
2021/05/02 07:12:25;;;;;;;18.50;5.07;;;;;;;27.24;45.49;99226.44;5063184;28;20322;-68
2021/05/02 07:14:51;;;;;;;19.83;5.65;;;;;;;27.30;45.43;99214.44;5062884;28;20039;-73
2021/05/02 07:17:17;;;;;;;16.30;4.85;;;;;;;27.24;45.52;99213.69;5063329;28;20029;-72
2021/05/02 07:19:43;;;;;;;21.73;5.40;;;;;;;27.26;45.05;99216.91;5060592;28;20052;-68
2021/05/02 07:22:08;;;;;;;22.73;4.53;;;;;;;27.20;45.02;99209.91;5060124;28;20055;-68
2021/05/02 07:24:34;;;;;;;26.85;6.35;;;;;;;27.18;46.01;99214.00;5059062;28;20029;-68
2021/05/02 07:27:00;;;;;;;16.55;4.93;;;;;;;26.87;46.54;99216.06;5060866;28;20245;-70
2021/05/02 07:29:25;;;;;;;26.58;5.95;;;;;;;26.59;47.88;99214.88;5059022;28;20067;-71
2021/05/02 07:31:51;;;;;;;18.85;5.78;;;;;;;26.59;47.87;99226.53;5060530;28;20334;-70
2021/05/02 07:34:19;;;;;;;21.15;6.22;;;;;;;26.68;47.92;99227.56;5060743;28;20025;-70
2021/05/02 07:36:45;;;;;;;24.95;5.47;;;;;;;26.71;47.37;99218.88;5059457;28;20024;-70
2021/05/02 07:39:10;;;;;;;18.30;5.20;;;;;;;26.83;47.70;99223.97;5059762;28;20029;-69
2021/05/02 07:41:36;;;;;;;22.30;5.68;;;;;;;26.87;47.32;99229.63;5061044;28;20099;-74
2021/05/02 07:44:02;;;;;;;18.35;6.07;;;;;;;27.04;47.60;99209.19;5061439;28;20048;-70
2021/05/02 07:46:28;;;;;;;20.25;5.40;;;;;;;26.76;47.43;99218.03;5057040;28;20196;-70
2021/05/02 07:48:53;;;;;;;17.50;5.05;;;;;;;26.74;46.88;99212.06;5058842;28;20055;-70
2021/05/02 07:51:19;;;;;;;19.05;4.75;;;;;;;27.14;45.51;99212.94;5060170;28;20035;-74
2021/05/02 07:53:44;;;;;;;23.65;6.60;;;;;;;27.28;45.39;99189.44;5058113;28;20323;-69
2021/05/02 07:56:10;;;;;;;18.17;4.50;;;;;;;26.96;46.90;99177.16;5062842;28;20046;-69
2021/05/02 07:58:35;;;;;;;16.48;5.30;;;;;;;26.55;46.42;99175.78;5062257;28;20071;-69
2021/05/02 08:01:02;;;;;;;22.08;4.90;;;;;;;26.61;47.06;99156.47;5062259;28;20346;-70
2021/05/02 08:03:27;;;;;;;22.88;5.28;;;;;;;26.90;45.94;99142.16;5062229;28;20167;-69
2021/05/02 08:05:53;;;;;;;20.13;4.85;;;;;;;27.06;45.97;99129.31;5062391;28;20031;-74
2021/05/02 08:08:18;;;;;;;19.40;4.43;;;;;;;27.17;43.94;99141.72;5061976;28;20048;-69
2021/05/02 08:10:44;;;;;;;23.00;5.43;;;;;;;27.24;44.64;99153.88;5062433;28;20025;-71
2021/05/02 08:13:09;;;;;;;19.95;5.07;;;;;;;27.19;44.69;99170.22;5057643;28;20226;-71
2021/05/02 08:15:35;;;;;;;19.88;4.50;;;;;;;27.10;45.26;99163.78;5060645;28;20158;-73
2021/05/02 08:18:01;;;;;;;25.58;6.00;;;;;;;27.41;45.71;99164.31;5062214;28;20045;-75
2021/05/02 08:20:27;;;;;;;19.02;4.90;;;;;;;27.50;45.50;99181.63;5062209;28;20335;-74
2021/05/02 08:22:53;;;;;;;12.55;3.95;;;;;;;27.93;42.85;99190.75;5062530;28;20255;-68
2021/05/02 08:25:20;;;;;;;22.00;4.30;;;;;;;28.03;43.35;99181.66;5060770;28;20058;-73
2021/05/02 08:27:47;;;;;;;20.33;4.82;;;;;;;27.88;41.93;99173.66;5061997;28;20041;-74
2021/05/02 08:30:13;;;;;;;18.02;4.22;;;;;;;27.62;43.84;99184.00;5062322;28;20074;-74
2021/05/02 08:32:39;;;;;;;22.73;4.35;;;;;;;27.50;43.23;99195.22;5061537;28;20207;-69
2021/05/02 08:35:05;;;;;;;23.80;5.15;;;;;;;27.67;42.75;99184.75;5060984;28;20029;-69
2021/05/02 08:37:30;;;;;;;20.60;4.53;;;;;;;28.10;42.70;99189.50;5061838;28;20053;-74
2021/05/02 08:39:56;;;;;;;17.55;4.40;;;;;;;28.36;41.51;99196.28;5061780;28;20043;-70
2021/05/02 08:42:21;;;;;;;17.38;4.97;;;;;;;28.66;40.22;99186.06;5061734;28;20043;-69
2021/05/02 08:44:47;;;;;;;20.90;5.05;;;;;;;29.07;39.34;99194.47;5062002;28;20029;-69
2021/05/02 08:47:14;;;;;;;13.70;3.72;;;;;;;29.48;37.78;99191.94;5061154;28;20056;-70
2021/05/02 08:49:44;;;;;;;16.30;4.10;;;;;;;29.62;37.84;99202.88;5054139;28;20032;-70
2021/05/02 08:52:10;;;;;;;14.35;4.20;;;;;;;29.55;37.76;99203.25;5065783;28;20045;-70
2021/05/02 08:54:36;;;;;;;17.80;4.25;;;;;;;29.30;37.08;99212.66;5065719;28;20060;-75
2021/05/02 08:57:02;;;;;;;21.98;4.38;;;;;;;29.09;39.44;99208.59;5065703;28;20071;-75
2021/05/02 08:59:28;;;;;;;14.77;3.80;;;;;;;28.95;40.04;99216.72;5065952;28;20032;-74
2021/05/02 09:01:57;;;;;;;17.38;4.80;;;;;;;28.71;40.26;99224.94;5065277;28;20036;-69
2021/05/02 09:04:23;;;;;;;21.27;4.35;;;;;;;28.67;39.70;99210.28;5065883;28;20045;-70
2021/05/02 09:06:48;;;;;;;27.23;4.93;;;;;;;28.69;40.75;99232.59;5065413;28;20044;-75
2021/05/02 09:09:14;;;;;;;17.77;4.57;;;;;;;28.46;41.60;99228.00;5063970;28;20246;-75
2021/05/02 09:11:41;;;;;;;16.90;4.75;;;;;;;28.59;40.97;99241.72;5055009;28;20087;-72
2021/05/02 09:14:31;;;;;;;25.08;5.10;;;;;;;28.46;42.25;99231.53;5073595;28;20060;-75
2021/05/02 09:17:10;;;;;;;24.63;5.07;;;;;;;28.34;43.34;99233.88;5068069;28;20132;-74
2021/05/02 09:19:49;;;;;;;19.88;5.45;;;;;;;28.11;44.24;99215.59;5073360;28;20352;-70
2021/05/02 09:22:16;;;;;;;24.38;6.00;;;;;;;28.07;43.51;99234.41;5078179;28;20043;-69
2021/05/02 09:24:57;;;;;;;22.83;4.80;;;;;;;28.27;41.61;99234.22;5072128;28;20321;-75
2021/05/02 09:27:22;;;;;;;26.88;5.63;;;;;;;28.31;41.00;99214.59;5076888;28;20040;-74
2021/05/02 09:29:48;;;;;;;20.20;4.47;;;;;;;28.59;40.87;99206.31;5071839;28;20029;-69
2021/05/02 09:32:15;;;;;;;22.90;5.15;;;;;;;28.73;40.69;99198.22;5078110;28;20087;-70
2021/05/02 09:34:52;;;;;;;55.75;5.43;;;;;;;28.74;41.10;99213.47;5069183;28;20037;-74
2021/05/02 09:37:20;;;;;;;130.23;11.43;;;;;;;28.65;41.90;99209.78;5053474;28;20086;-69
2021/05/02 09:39:53;;;;;;;41.70;6.85;;;;;;;28.60;42.25;99212.56;5068224;28;20051;-74
2021/05/02 09:42:25;;;;;;;321.67;21.30;;;;;;;28.72;42.52;99218.38;5053605;28;20033;-69
2021/05/02 09:44:55;;;;;;;23.02;5.20;;;;;;;28.52;42.77;99216.75;5067481;28;20020;-75
2021/05/02 09:47:38;;;;;;;18.42;5.13;;;;;;;28.59;43.49;99194.59;5069241;28;20029;-75
2021/05/02 09:50:18;;;;;;;17.42;5.57;;;;;;;28.66;42.97;99196.97;5061184;28;20033;-74
2021/05/02 09:52:49;;;;;;;30.92;7.07;;;;;;;28.84;41.60;99201.63;5075456;28;20365;-75
2021/05/02 09:55:37;;;;;;;22.10;6.35;;;;;;;29.01;42.05;99182.03;5060406;28;20036;-75
2021/05/02 09:58:21;;;;;;;27.52;7.25;;;;;;;29.00;41.99;99180.41;5059609;28;20030;-70
2021/05/02 10:00:50;;;;;;;26.05;7.18;;;;;;;28.96;41.93;99180.19;5047673;28;20090;-70
2021/05/02 10:03:20;;;;;;;20.48;6.18;;;;;;;28.96;41.25;99180.19;5058179;28;20038;-74
2021/05/02 10:05:57;;;;;;;23.38;6.88;;;;;;;28.88;41.56;99180.84;5061050;28;20222;-69
2021/05/02 10:08:30;;;;;;;23.08;6.38;;;;;;;29.02;42.00;99165.38;5059202;28;20238;-70
2021/05/02 10:10:58;;;;;;;17.30;5.87;;;;;;;29.04;42.13;99165.06;5060813;28;20029;-75
2021/05/02 10:13:24;;;;;;;20.00;6.38;;;;;;;29.03;41.50;99167.00;5063447;28;20047;-70
2021/05/02 10:15:50;;;;;;;22.60;6.60;;;;;;;29.29;41.46;99166.59;5062349;28;20028;-75
2021/05/02 10:18:16;;;;;;;18.25;6.43;;;;;;;29.05;43.08;99158.53;5061766;28;20044;-75
2021/05/02 10:20:46;;;;;;;29.17;6.00;;;;;;;28.98;43.65;99142.53;5061251;28;20367;-69
2021/05/02 10:23:14;;;;;;;22.85;6.35;;;;;;;28.88;43.84;99137.25;5061914;28;20025;-75
2021/05/02 10:25:41;;;;;;;20.52;6.45;;;;;;;29.20;43.13;99136.47;5062062;28;20040;-75
2021/05/02 10:28:08;;;;;;;21.58;7.85;;;;;;;29.33;41.31;99137.63;5061845;28;20040;-75
2021/05/02 10:30:40;;;;;;;23.25;8.57;;;;;;;29.55;40.88;99149.50;5061256;28;20033;-75
2021/05/02 10:33:09;;;;;;;24.50;8.63;;;;;;;29.50;40.09;99144.16;5060998;28;20068;-75
2021/05/02 10:35:43;;;;;;;28.88;6.90;;;;;;;29.58;40.65;99137.19;5060267;28;20056;-75
2021/05/02 10:38:10;;;;;;;19.50;7.10;;;;;;;29.52;40.69;99127.47;5057721;28;20388;-69
2021/05/02 10:40:37;;;;;;;20.88;6.80;;;;;;;29.47;41.27;99125.66;5061512;28;20327;-74
2021/05/02 10:43:08;;;;;;;20.90;6.45;;;;;;;29.45;40.37;99118.88;5062477;28;20048;-70
2021/05/02 10:45:33;;;;;;;26.35;6.70;;;;;;;29.28;40.42;99119.44;5061792;28;20056;-70
2021/05/02 10:48:01;;;;;;;17.48;5.93;;;;;;;29.44;40.31;99109.09;5061322;28;20105;-69
2021/05/02 10:50:29;;;;;;;25.02;6.85;;;;;;;29.41;40.67;99099.56;5061044;28;20297;-75
2021/05/02 10:53:08;;;;;;;25.38;6.82;;;;;;;29.42;40.39;99103.09;5060012;28;20104;-70
2021/05/02 10:55:58;;;;;;;27.30;6.68;;;;;;;29.52;40.97;99106.47;5060264;28;20055;-74
2021/05/02 10:58:25;;;;;;;23.42;6.65;;;;;;;29.68;41.42;99100.72;5058863;28;20249;-70
2021/05/02 11:00:54;;;;;;;21.02;5.70;;;;;;;29.59;40.46;99103.34;5062615;28;20215;-75
2021/05/02 11:03:35;;;;;;;20.50;6.00;;;;;;;29.58;39.66;99106.38;5062804;28;20029;-70
2021/05/02 11:06:05;;;;;;;19.35;6.07;;;;;;;29.53;41.16;99107.28;5063807;28;20239;-74
2021/05/02 11:08:57;;;;;;;20.85;6.20;;;;;;;28.99;41.56;99086.13;5063483;28;20228;-69
2021/05/02 11:11:29;;;;;;;29.73;6.63;;;;;;;28.79;42.17;99107.13;5045237;28;20033;-69
2021/05/02 11:14:21;;;;;;;17.80;6.10;;;;;;;28.41;42.86;99100.09;5042884;28;20045;-69
2021/05/02 11:17:15;;;;;;;22.77;6.22;;;;;;;28.48;42.73;99095.09;5057061;28;20072;-75
2021/05/02 11:19:41;;;;;;;25.33;5.88;;;;;;;28.67;41.79;99090.44;5052676;28;20041;-69
2021/05/02 11:22:08;;;;;;;21.30;5.80;;;;;;;28.79;41.26;99090.78;5071952;28;20048;-74
2021/05/02 11:24:43;;;;;;;20.80;5.72;;;;;;;29.03;40.74;99095.31;5060044;28;20041;-70
2021/05/02 11:27:48;;;;;;;19.95;6.18;;;;;;;28.99;39.18;99089.66;5058629;28;20324;-70
2021/05/02 11:30:16;;;;;;;22.88;6.82;;;;;;;28.95;40.08;99083.19;5057504;28;20048;-69
2021/05/02 11:32:43;;;;;;;19.38;6.05;;;;;;;29.04;41.26;99080.59;5060349;28;20033;-75